Date,TemperatureHighF,TemperatureAvgF,TemperatureLowF,DewpointHighF,DewpointAvgF,DewpointLowF,HumidityHigh,HumidityAvg,HumidityLow,PressureMaxIn,PressureMinIn,WindSpeedMaxMPH,WindSpeedAvgMPH,GustSpeedMaxMPH,PrecipitationSumIn
2013-1-1,15,5,0,4,-1,-5,85,76,61,0.00,40.00,7,3,13,0.01
2013-1-2,15,7,3,8,0,-9,82,73,53,0.00,40.00,10,4,17,0.01
2013-1-3,28,10,0,0,-6,-12,67,48,26,0.00,40.00,9,4,15,0.13
2013-1-4,35,20,11,6,-5,-16,49,34,19,0.00,40.00,9,3,19,0.14
2013-1-5,36,23,12,6,-8,-16,37,25,17,0.00,40.00,6,3,10,0.01
2013-1-6,37,28,21,1,-8,-14,27,20,17,0.00,40.00,11,6,17,0.01
2013-1-7,38,27,19,1,-8,-14,33,22,14,0.00,40.00,7,4,12,0.00
2013-1-8,28,21,18,16,8,-5,81,58,31,0.00,40.00,11,6,20,0.00
2013-1-9,39,28,20,13,9,3,71,47,30,0.00,40.00,11,6,17,0.00
2013-1-10,33,28,24,19,8,0,82,47,25,0.00,40.00,21,14,44,0.00
2013-1-11,23,9,-2,18,4,-8,91,81,69,0.00,40.00,22,11,48,0.00
2013-1-12,4,-2,-7,-2,-8,-13,77,75,73,0.00,40.00,8,3,13,0.00
2013-1-13,6,-4,-10,0,-10,-17,75,73,71,0.00,40.00,6,3,10,0.00
2013-1-14,8,-6,-12,1,-13,-19,72,71,69,0.00,40.00,6,3,11,0.00
2013-1-15,13,0,-12,7,-6,-19,83,75,70,0.00,40.00,6,3,9,0.00
2013-1-16,25,16,6,20,10,1,86,80,72,0.00,40.00,11,5,18,0.10
2013-1-17,34,22,14,17,8,0,79,56,38,0.00,40.00,9,4,12,0.01
2013-1-18,34,24,17,13,9,6,63,53,40,0.00,40.00,6,4,9,0.01
2013-1-19,42,27,18,10,6,-3,61,42,21,0.00,40.00,6,3,9,0.00
2013-1-20,42,26,19,3,-4,-8,37,27,18,0.00,40.00,7,3,16,0.00
2013-1-21,36,26,19,3,-3,-8,35,27,18,0.00,40.00,8,4,15,0.00
2013-1-22,39,30,22,-2,-7,-17,28,20,12,0.00,40.00,8,4,15,0.00
2013-1-23,48,34,28,0,-7,-16,22,16,12,0.00,40.00,9,6,14,0.00
2013-1-24,34,29,26,27,11,-5,97,57,19,0.00,40.00,12,6,18,0.00
2013-1-25,32,29,27,30,28,26,98,96,93,0.00,40.00,6,4,10,0.10
2013-1-26,34,30,28,32,28,26,98,96,91,0.00,40.00,9,6,14,0.07
2013-1-27,30,27,25,28,26,24,97,95,91,0.00,40.00,14,8,29,0.01
2013-1-28,26,18,5,25,15,-1,96,89,81,0.00,40.00,13,8,27,0.01
2013-1-29,10,5,1,5,0,-5,82,79,74,0.00,40.00,11,7,21,0.00
2013-1-30,13,7,3,10,3,-2,88,83,80,0.00,40.00,7,4,17,0.00
2013-1-31,25,20,14,22,17,11,90,88,86,0.00,40.00,9,5,14,0.06
2013-2-1,27,20,17,24,18,15,92,90,86,0.00,40.00,10,5,18,0.01
2013-2-2,38,22,14,34,18,11,93,82,64,0.00,40.00,7,3,9,0.37
2013-2-3,35,25,17,12,6,-5,75,47,17,0.00,40.00,9,4,19,0.02
2013-2-4,41,21,15,20,14,11,93,76,38,0.00,40.00,7,4,11,0.01
2013-2-5,42,28,18,18,12,8,73,53,32,0.00,40.00,8,5,10,0.00
2013-2-6,35,26,17,24,17,11,92,70,51,0.00,40.00,10,6,17,0.00
2013-2-7,31,21,13,16,6,-6,87,55,19,0.00,40.00,12,6,17,0.09
2013-2-8,33,26,20,19,9,1,73,48,37,0.00,40.00,19,13,31,0.01
2013-2-9,24,17,11,18,13,6,91,85,66,0.00,40.00,14,8,30,0.00
2013-2-10,23,13,9,17,9,5,85,82,74,0.00,40.00,7,4,13,0.09
2013-2-11,16,9,2,10,4,-4,86,81,76,0.00,40.00,8,5,15,0.02
2013-2-12,18,9,1,10,2,-5,83,75,67,0.00,40.00,11,6,17,0.07
2013-2-13,24,16,10,16,11,6,87,81,67,0.00,40.00,10,3,21,0.01
2013-2-14,23,16,11,14,12,7,88,82,69,0.00,40.00,9,6,22,0.04
2013-2-15,22,15,12,15,10,7,86,81,72,0.00,40.00,12,5,19,0.03
2013-2-16,33,22,12,12,8,2,80,58,41,0.00,40.00,8,4,11,0.12
2013-2-17,32,24,10,16,3,-4,89,44,28,0.00,40.00,19,10,32,0.01
2013-2-18,20,12,6,8,3,-3,83,67,46,0.00,40.00,18,7,34,0.01
2013-2-19,33,22,12,1,-7,-21,50,28,13,0.00,40.00,15,8,21,0.01
2013-2-20,35,24,18,10,2,-3,58,39,28,0.00,40.00,11,8,19,0.01
2013-2-21,19,14,11,12,9,7,86,80,67,0.00,40.00,15,8,25,0.00
2013-2-22,17,10,5,7,3,-2,86,72,52,0.00,40.00,12,7,21,0.00
2013-2-23,20,12,6,14,7,1,88,82,75,0.00,40.00,12,6,19,0.00
2013-2-24,15,10,5,11,6,0,85,83,80,0.00,40.00,15,10,26,0.00
2013-2-25,29,12,5,23,6,0,82,77,70,0.00,40.00,8,5,12,0.14
2013-2-26,14,10,7,7,5,2,84,79,71,0.00,40.00,16,10,28,0.01
2013-2-27,22,10,2,14,3,-4,82,73,59,0.00,40.00,11,5,19,0.02
2013-2-28,24,14,3,14,5,-5,88,69,45,0.00,40.00,8,4,15,0.01
2013-3-1,27,22,16,21,18,13,90,84,75,0.00,40.00,9,5,18,0.08
2013-3-2,40,29,18,23,18,14,91,65,48,0.00,40.00,8,4,12,0.01
2013-3-3,35,30,27,26,19,15,95,65,48,0.00,40.00,13,7,26,0.00
2013-3-4,27,19,6,26,14,-4,95,80,62,0.00,40.00,18,8,30,0.01
2013-3-5,36,21,7,-1,-8,-13,66,31,12,0.00,40.00,12,7,20,0.09
2013-3-6,42,34,26,15,8,-8,42,33,21,0.00,40.00,17,12,32,0.01
2013-3-7,43,36,31,14,9,3,45,33,20,0.00,40.00,18,12,29,0.00
2013-3-8,41,33,25,26,13,5,95,48,32,0.00,40.00,13,10,24,0.00
2013-3-9,27,22,12,24,19,6,95,89,79,0.00,40.00,15,8,28,0.00
2013-3-10,28,20,10,14,9,6,86,65,49,0.00,40.00,13,8,24,0.10
2013-3-11,34,25,16,19,15,8,84,67,50,0.00,40.00,11,4,20,0.08
2013-3-12,40,30,22,23,19,16,85,65,43,0.00,40.00,11,5,17,0.02
2013-3-13,44,34,24,26,17,9,87,54,24,0.00,40.00,11,4,18,0.01
2013-3-14,49,38,30,21,16,13,53,41,26,0.00,40.00,9,4,16,0.00
2013-3-15,52,42,36,21,18,16,47,37,27,0.00,40.00,11,6,19,0.00
2013-3-16,42,36,29,25,20,15,71,51,33,0.00,40.00,15,7,31,0.00
2013-3-17,34,28,20,24,13,-1,94,57,28,0.00,40.00,24,13,50,0.02
2013-3-18,31,21,12,14,6,1,72,52,33,0.00,40.00,17,9,33,0.02
2013-3-19,34,25,19,7,-6,-22,60,31,9,0.00,40.00,13,6,25,0.00
2013-3-20,35,28,22,22,1,-20,79,35,13,0.00,40.00,12,7,24,0.00
2013-3-21,30,24,14,26,20,7,95,84,66,0.00,40.00,19,7,34,0.16
2013-3-22,27,17,10,13,7,0,84,66,41,0.00,40.00,12,6,21,0.06
2013-3-23,17,9,3,6,2,-3,81,74,55,0.00,40.00,12,8,26,0.01
2013-3-24,15,7,0,3,-1,-6,79,69,43,0.00,40.00,11,6,23,0.01
2013-3-25,28,14,0,2,-4,-13,76,49,25,0.00,40.00,7,4,14,0.04
2013-3-26,40,28,16,13,4,-13,46,36,26,0.00,40.00,13,7,22,0.03
2013-3-27,48,34,25,22,18,11,88,54,29,0.00,40.00,11,6,22,0.00
2013-3-28,49,43,37,16,14,11,37,31,26,0.00,40.00,10,5,21,0.00
2013-3-29,47,39,30,30,21,11,96,51,33,0.00,40.00,13,7,26,0.00
2013-3-30,48,37,27,26,21,15,83,55,28,0.00,40.00,11,6,28,0.04
2013-3-31,51,40,29,19,15,6,57,38,28,0.00,40.00,8,4,18,0.04
2013-4-1,47,37,30,31,20,5,96,54,25,0.00,40.00,14,6,34,0.00
2013-4-2,41,32,27,27,24,19,95,74,49,0.00,40.00,12,7,19,0.09
2013-4-3,45,35,24,27,20,11,96,59,25,0.00,40.00,10,6,21,0.06
2013-4-4,50,40,29,23,18,12,69,43,23,0.00,40.00,12,6,22,0.00
2013-4-5,47,39,29,31,20,14,96,51,32,0.00,40.00,15,8,30,0.00
2013-4-6,44,34,26,29,22,17,96,64,39,0.00,40.00,12,6,19,0.08
2013-4-7,42,34,25,31,24,14,94,71,37,0.00,40.00,12,6,25,0.09
2013-4-8,40,34,29,29,19,10,97,58,35,0.00,40.00,16,10,31,0.01
2013-4-9,28,15,3,27,11,-2,96,86,77,0.00,40.00,14,10,26,0.01
2013-4-10,22,13,1,16,8,-4,85,79,75,0.00,40.00,11,7,18,0.10
2013-4-11,34,24,16,30,21,13,96,88,79,0.00,40.00,11,4,20,0.22
2013-4-12,43,33,24,29,21,10,96,66,28,0.00,40.00,9,5,17,0.06
2013-4-13,41,34,28,30,16,8,97,49,30,0.00,40.00,22,10,47,0.01
2013-4-14,31,23,15,25,11,2,94,62,33,0.00,40.00,14,9,28,0.13
2013-4-15,27,25,22,25,20,7,93,85,44,0.00,40.00,13,6,24,0.03
2013-4-16,37,27,18,26,22,15,92,82,64,0.00,40.00,19,12,39,0.26
2013-4-17,21,14,6,19,9,1,91,81,70,0.00,40.00,15,9,27,0.05
2013-4-18,19,10,2,10,4,-3,81,74,61,0.00,40.00,11,6,21,0.07
2013-4-19,34,21,9,20,11,3,92,66,43,0.00,40.00,10,5,17,0.03
2013-4-20,36,28,22,30,25,20,94,87,65,0.00,40.00,9,4,17,0.31
2013-4-21,44,33,21,27,21,14,94,65,34,0.00,40.00,12,7,24,0.19
2013-4-22,41,33,25,28,19,12,91,60,31,0.00,40.00,15,9,32,0.02
2013-4-23,28,20,12,21,9,1,91,64,35,0.00,40.00,14,8,23,0.02
2013-4-24,39,28,18,6,1,-4,47,32,20,0.00,40.00,10,5,19,0.02
2013-4-25,47,38,27,9,4,-4,31,24,17,0.00,40.00,12,6,24,0.00
2013-4-26,51,41,32,11,6,2,33,23,15,0.00,40.00,12,7,20,0.00
2013-4-27,55,44,34,15,9,4,32,24,18,0.00,40.00,11,6,19,0.00
2013-4-28,57,47,37,20,14,5,35,26,21,0.00,40.00,12,6,34,0.00
2013-4-29,56,48,40,23,19,14,45,33,19,0.00,40.00,13,8,29,0.00
2013-4-30,51,45,29,33,22,16,96,45,29,0.00,40.00,21,11,43,0.01
2013-5-1,29,25,18,25,21,12,95,86,72,0.00,40.00,14,8,27,0.09
2013-5-2,36,25,14,15,10,0,88,56,28,0.00,40.00,11,8,20,0.03
2013-5-3,52,38,24,11,5,-1,36,25,15,0.00,40.00,9,4,18,0.00
2013-5-4,55,44,34,20,10,4,47,26,16,0.00,40.00,10,6,21,0.00
2013-5-5,51,44,37,22,17,11,51,35,20,0.00,40.00,15,9,25,0.00
2013-5-6,51,39,32,32,26,17,98,63,36,0.00,40.00,14,5,23,0.15
2013-5-7,47,35,31,35,31,26,99,87,45,0.00,40.00,14,6,25,0.24
2013-5-8,38,33,30,34,29,24,97,87,70,0.00,40.00,7,4,10,0.35
2013-5-9,50,39,29,30,26,22,97,66,33,0.00,40.00,10,4,21,0.25
2013-5-10,53,44,34,26,21,15,65,42,27,0.00,40.00,12,6,23,0.05
2013-5-11,54,46,38,23,20,15,48,37,21,0.00,40.00,15,6,24,0.00
2013-5-12,59,50,40,27,25,23,54,39,26,0.00,40.00,9,5,20,0.00
2013-5-13,64,55,47,30,26,24,43,34,25,0.00,40.00,11,4,17,0.00
2013-5-14,65,56,49,31,26,23,46,33,22,0.00,40.00,14,6,23,0.00
2013-5-15,60,50,43,37,32,27,75,50,34,0.00,40.00,15,6,25,0.01
2013-5-16,63,47,40,36,12,-100,85,46,25,0.00,40.00,16,8,36,0.01
2013-5-17,62,52,45,25,11,-100,39,24,12,0.00,40.00,17,10,36,0.01
2013-5-18,50,42,33,31,26,13,90,56,24,0.00,40.00,15,7,32,0.02
2013-5-19,42,36,31,30,28,21,96,75,44,0.00,40.00,11,6,27,0.01
2013-5-20,40,35,31,35,31,29,97,88,72,0.00,40.00,16,8,26,0.09
2013-5-21,52,41,32,31,29,24,94,66,37,0.00,40.00,10,6,19,0.01
2013-5-22,61,52,41,27,22,14,56,34,16,0.00,40.00,16,10,31,0.00
2013-5-23,65,57,47,20,12,2,29,18,9,0.00,40.00,25,18,49,0.00
2013-5-24,62,54,46,14,9,4,24,16,11,0.00,40.00,19,12,34,0.00
2013-5-25,64,54,46,13,10,7,23,17,11,0.00,40.00,16,10,30,0.00
2013-5-26,64,55,47,17,12,6,23,18,11,0.00,40.00,15,9,27,0.00
2013-5-27,61,53,44,18,12,4,26,20,16,0.00,40.00,13,7,26,0.00
2013-5-28,58,48,37,34,20,13,87,34,22,0.00,40.00,16,10,37,0.00
2013-5-29,40,34,31,35,32,28,98,93,82,0.00,40.00,12,6,28,0.42
2013-5-30,50,40,32,29,23,16,87,55,26,0.00,40.00,18,11,44,0.10
2013-5-31,50,41,32,21,16,7,60,38,18,0.00,40.00,16,8,34,0.01
2013-6-1,56,44,31,28,22,15,57,42,31,0.00,40.00,10,6,19,0.00
2013-6-2,67,56,45,24,18,11,39,24,12,0.00,40.00,16,8,26,0.00
2013-6-3,64,57,50,30,20,8,35,23,18,0.00,40.00,18,8,35,0.01
2013-6-4,64,54,44,31,19,6,41,25,19,0.00,40.00,15,7,37,0.01
2013-6-5,59,52,44,27,24,20,43,34,24,0.00,40.00,11,8,20,0.00
2013-6-6,63,55,46,30,24,19,40,30,23,0.00,40.00,10,6,21,0.00
2013-6-7,65,57,49,33,27,22,38,32,26,0.00,40.00,12,6,24,0.00
2013-6-8,66,58,52,34,30,22,45,35,21,0.00,40.00,13,7,24,0.00
2013-6-9,73,61,49,33,28,22,42,29,19,0.00,40.00,12,7,21,0.00
2013-6-10,76,68,58,32,25,15,28,20,14,0.00,40.00,17,8,32,0.00
2013-6-11,69,61,54,22,18,16,23,19,15,0.00,40.00,20,12,39,0.00
2013-6-12,73,63,53,28,21,14,25,20,15,0.00,40.00,15,8,27,0.00
2013-6-13,71,62,55,32,24,15,34,23,17,0.00,40.00,23,9,47,0.01
2013-6-14,68,60,50,31,19,0,40,23,10,0.00,40.00,15,8,29,0.01
2013-6-15,68,58,47,28,19,8,37,23,16,0.00,40.00,16,10,30,0.00
2013-6-16,64,54,46,42,33,27,75,44,31,0.00,40.00,12,6,28,0.01
2013-6-17,67,59,50,38,28,23,43,32,21,0.00,40.00,13,6,19,0.01
2013-6-18,69,61,53,32,23,0,34,24,11,0.00,40.00,19,9,28,0.00
2013-6-19,69,61,52,24,10,0,22,14,8,0.00,40.00,20,12,39,0.00
2013-6-20,66,54,43,22,16,6,32,23,13,0.00,40.00,15,11,30,0.00
2013-6-22,66,62,54,23,18,12,25,19,13,0.00,40.00,17,12,39,0.00
2013-6-23,71,57,45,26,19,12,28,23,17,0.00,40.00,13,7,27,0.00
2013-6-24,65,58,51,23,17,10,32,20,16,0.00,40.00,17,11,32,0.00
2013-6-25,69,58,46,35,30,23,58,35,24,0.00,40.00,11,7,27,0.00
2013-6-26,75,65,53,36,28,20,36,26,16,0.00,40.00,14,6,24,0.00
2013-6-27,78,69,59,40,30,21,36,24,16,0.00,40.00,13,8,20,0.00
2013-6-28,79,71,62,37,27,18,28,20,16,0.00,40.00,10,6,20,0.00
2013-6-29,78,67,58,40,34,28,46,30,20,0.00,40.00,12,6,27,0.00
2013-6-30,72,64,56,42,37,33,48,37,26,0.00,40.00,14,7,23,0.00
2013-7-1,73,65,57,39,33,27,48,31,20,0.00,40.00,13,7,28,0.00
2013-7-2,72,64,55,40,33,26,40,32,21,0.00,40.00,11,7,24,0.00
2013-7-3,72,61,50,50,33,22,75,37,22,0.00,40.00,13,6,39,0.06
2013-7-4,73,63,54,44,40,36,54,43,30,0.00,40.00,9,5,27,0.06
2013-7-5,72,62,51,53,44,38,88,54,31,0.00,40.00,12,6,25,0.09
2013-7-6,70,57,51,47,43,39,74,60,38,0.00,40.00,21,6,33,0.28
2013-7-7,71,61,52,46,42,39,65,50,33,0.00,40.00,12,5,22,0.24
2013-7-8,73,60,51,45,41,35,75,52,30,0.00,40.00,10,6,24,0.01
2013-7-9,75,66,59,42,35,28,40,32,22,0.00,40.00,6,3,20,0.01
2013-7-10,79,69,61,43,28,-100,37,24,12,0.00,40.00,9,6,19,0.00
2013-7-11,79,67,57,46,36,13,66,34,12,0.00,40.00,17,8,43,0.01
2013-7-12,73,60,53,50,47,43,83,63,34,0.00,40.00,12,8,24,0.03
2013-7-13,71,60,52,52,49,45,89,69,41,0.00,40.00,10,7,22,0.08
2013-7-14,73,61,50,50,46,41,96,60,35,0.00,40.00,10,6,22,0.17
2013-7-15,74,62,55,49,44,41,64,52,33,0.00,40.00,9,6,20,0.01
2013-7-16,73,65,58,54,49,44,70,56,44,0.00,40.00,7,5,15,0.27
2013-7-17,70,61,51,52,48,44,86,66,50,0.00,40.00,10,5,19,0.08
2013-7-18,71,62,52,51,47,42,82,60,40,0.00,40.00,13,7,22,0.01
2013-7-19,74,62,52,52,43,31,82,53,28,0.00,40.00,8,4,20,0.14
2013-7-20,75,64,55,46,33,-100,66,37,15,0.00,40.00,9,5,20,0.01
2013-7-21,78,68,59,28,21,15,24,17,11,0.00,40.00,11,6,25,0.00
2013-7-22,79,68,59,37,23,8,36,20,7,0.00,40.00,11,5,21,0.00
2013-7-23,78,69,63,22,14,1,16,12,8,0.00,40.00,12,8,22,0.00
2013-7-24,69,64,59,41,33,15,51,34,14,0.00,40.00,18,6,32,0.00
2013-7-25,69,61,53,48,41,37,64,49,32,0.00,40.00,13,5,18,0.03
2013-7-26,75,64,54,38,32,26,53,32,18,0.00,40.00,10,6,20,0.03
2013-7-27,70,60,51,47,38,26,87,47,26,0.00,40.00,11,6,28,0.12
2013-7-28,61,52,48,53,48,44,99,88,75,0.00,40.00,11,5,17,0.72
2013-7-29,64,54,46,48,45,42,97,73,49,0.00,40.00,10,6,20,0.17
2013-7-30,66,56,47,45,42,36,88,61,40,0.00,40.00,10,6,19,0.10
2013-7-31,73,63,56,40,36,28,47,36,26,0.00,40.00,10,5,21,0.10
2013-8-1,62,55,48,48,40,28,95,62,30,0.00,40.00,17,7,26,0.01
2013-8-2,70,59,48,51,44,36,87,61,30,0.00,40.00,11,7,25,0.01
2013-8-3,70,60,52,49,43,38,74,56,41,0.00,40.00,11,6,20,0.29
2013-8-4,71,58,52,47,43,39,71,57,35,0.00,40.00,12,6,21,0.23
2013-8-5,69,57,51,50,42,39,73,58,44,0.00,40.00,12,5,23,0.14
2013-8-6,68,56,50,46,42,38,72,60,45,0.00,40.00,11,5,23,0.09
2013-8-7,64,55,51,46,38,32,64,54,41,0.00,40.00,13,5,19,0.01
2013-8-8,65,54,48,42,38,33,76,56,30,0.00,40.00,12,5,19,0.01
2013-8-9,66,54,47,42,37,33,65,55,31,0.00,40.00,11,5,20,0.03
2013-8-10,67,56,48,38,35,33,68,47,29,0.00,40.00,18,8,28,0.01
2013-8-12,65,58,47,42,34,29,84,42,32,0.00,40.00,13,6,28,0.03
2013-8-13,65,54,46,43,36,-100,80,54,35,0.00,40.00,9,5,29,0.12
2013-8-14,67,58,50,38,30,-100,52,37,18,0.00,40.00,11,6,23,0.12
2013-8-15,74,58,54,34,16,-100,36,25,15,0.00,40.00,9,4,23,0.00
2013-8-16,76,64,58,29,19,-100,26,19,11,0.00,40.00,7,4,21,0.00
2013-8-17,76,66,59,36,27,21,42,24,14,0.00,40.00,8,4,20,0.00
2013-8-18,74,62,55,41,37,32,55,40,25,0.00,40.00,10,5,18,0.00
2013-8-21,73,62,50,44,41,37,80,48,31,0.00,40.00,9,5,16,0.01
2013-8-22,77,62,55,44,41,38,61,48,26,0.00,40.00,9,5,23,0.00
2013-8-23,73,59,51,46,44,40,84,59,32,0.00,40.00,18,7,31,0.04
2013-8-24,66,56,50,45,42,37,78,60,34,0.00,40.00,11,7,20,0.04
2013-8-25,62,53,47,53,47,39,100,79,55,0.00,40.00,10,6,17,0.22
2013-8-26,63,55,48,51,49,47,100,82,61,0.00,40.00,13,8,22,0.07
2013-8-27,68,56,50,51,49,46,94,78,46,0.00,40.00,11,5,15,0.02
2013-8-28,76,70,59,46,42,39,53,37,26,0.00,40.00,9,6,18,0.00
2013-8-29,79,65,55,45,41,38,60,42,23,0.00,40.00,11,5,18,0.00
2013-8-30,75,63,57,47,43,38,66,50,32,0.00,40.00,13,5,20,0.00
2013-8-31,71,60,53,48,44,42,84,57,39,0.00,40.00,13,5,21,0.05
2013-9-1,74,62,51,47,44,41,80,53,36,0.00,40.00,8,5,16,0.02
2013-9-2,74,63,52,47,43,37,68,50,28,0.00,40.00,11,8,22,0.00
2013-9-3,75,64,56,47,43,41,65,48,31,0.00,40.00,11,4,24,0.00
2013-9-4,78,65,57,48,43,40,70,48,26,0.00,40.00,9,4,19,0.03
2013-9-5,77,65,56,45,43,41,59,46,29,0.00,40.00,10,6,17,0.02
2013-9-6,78,64,53,49,41,35,86,48,22,0.00,40.00,13,7,25,0.01
2013-9-7,79,64,56,43,39,34,57,41,21,0.00,40.00,11,6,26,0.02
2013-9-17,63,52,47,47,41,38,78,67,45,0.00,40.00,12,8,27,0.06
2013-9-18,53,49,46,44,42,40,90,78,66,0.00,40.00,12,7,21,0.08
2013-9-19,56,46,36,35,25,14,79,48,24,0.00,40.00,13,7,19,0.02
2013-9-20,62,49,40,24,19,14,41,31,15,0.00,40.00,11,5,18,0.00
2013-9-21,62,54,48,34,29,24,52,38,30,0.00,40.00,16,10,33,0.00
2013-9-22,52,43,32,44,37,31,98,82,63,0.00,40.00,19,11,41,0.36
2013-9-23,47,38,32,34,31,25,98,79,46,0.00,40.00,11,7,23,0.66
2013-9-24,57,45,35,33,27,16,85,54,25,0.00,40.00,14,8,23,0.06
2013-9-25,59,52,45,27,22,18,41,31,23,0.00,40.00,24,16,46,0.00
2013-9-26,59,50,42,24,22,19,47,34,24,0.00,40.00,26,17,43,0.00
2013-9-27,48,31,22,36,29,20,98,92,40,0.00,40.00,20,8,39,0.50
2013-9-28,44,31,21,32,22,19,93,72,37,0.00,40.00,9,5,15,0.33
2013-9-29,54,42,32,22,20,17,64,42,28,0.00,40.00,14,7,25,0.05
2013-9-30,61,49,39,27,22,18,48,35,26,0.00,40.00,13,8,22,0.00
2013-10-3,52,42,23,27,23,18,94,51,34,0.00,40.00,19,13,37,0.00
2013-10-4,27,20,16,24,18,13,93,90,87,0.00,40.00,10,7,22,0.11
2013-10-5,34,24,16,31,20,13,90,87,80,0.00,40.00,8,4,19,0.13
2013-10-6,50,37,22,30,24,18,88,63,37,0.00,40.00,5,3,11,0.01
2013-10-7,59,47,40,26,23,13,58,41,17,0.00,40.00,12,5,18,0.00
2013-10-8,55,47,41,26,21,18,42,35,27,0.00,40.00,23,11,42,0.00
2013-10-9,52,44,39,22,20,17,49,38,28,0.00,40.00,15,10,25,0.00
2013-10-17,40,30,21,26,18,15,95,65,38,0.00,40.00,8,4,16,0.01
2013-10-18,33,25,20,25,16,10,95,72,40,0.00,40.00,11,6,22,0.14
2013-10-19,44,32,21,19,15,10,70,51,35,0.00,40.00,10,4,15,0.01
2013-10-20,40,33,29,23,18,14,69,53,40,0.00,40.00,10,5,21,0.00
2013-10-21,42,33,24,22,19,16,83,58,38,0.00,40.00,8,5,16,0.00
2013-10-22,51,39,30,24,20,16,60,47,32,0.00,40.00,7,3,13,0.00
2013-10-23,57,44,36,26,22,18,56,43,26,0.00,40.00,7,3,13,0.00
2013-10-24,54,44,39,22,18,14,45,35,21,0.00,40.00,9,4,18,0.00
2013-10-25,50,42,37,23,19,16,45,39,30,0.00,40.00,9,4,13,0.00
2013-10-26,51,42,35,23,18,13,48,37,28,0.00,40.00,8,4,13,0.00
2013-10-27,47,39,32,23,20,13,59,47,33,0.00,40.00,12,6,22,0.00
2013-10-28,46,40,35,24,17,-100,65,43,25,0.00,40.00,22,17,42,0.00
2013-10-29,39,31,25,27,23,14,96,77,36,0.00,40.00,23,11,40,0.10
2013-10-30,31,24,21,29,22,19,95,93,89,0.00,40.00,13,6,25,0.10
2013-10-31,24,22,20,23,20,18,95,92,87,0.00,40.00,9,5,16,0.10
2013-11-1,31,26,24,28,24,21,95,92,86,0.00,40.00,11,6,22,0.14
2013-11-2,43,33,25,22,16,5,87,55,25,0.00,40.00,12,8,20,0.14
2013-11-3,41,32,14,23,15,5,92,52,28,0.00,40.00,23,12,36,0.02
2013-11-4,32,20,12,21,13,5,93,74,38,0.00,40.00,11,7,21,0.02
2013-11-5,20,13,9,12,6,4,87,74,57,0.00,40.00,15,8,26,0.01
2013-11-6,29,20,11,13,9,4,79,64,50,0.00,40.00,8,4,16,0.03
2013-11-7,42,31,21,19,15,12,67,53,40,0.00,40.00,9,6,16,0.01
2013-11-8,43,35,30,16,14,11,50,42,32,0.00,40.00,13,8,24,0.01
2013-11-9,46,37,30,18,14,12,48,39,30,0.00,40.00,9,5,14,0.00
2013-11-10,48,39,32,17,15,12,48,38,28,0.00,40.00,11,4,18,0.00
2013-11-11,51,40,32,20,16,12,46,38,26,0.00,40.00,6,3,14,0.00
2013-11-12,51,41,34,15,13,7,41,32,22,0.00,40.00,7,4,11,0.00
2013-11-13,46,38,33,18,13,6,52,37,26,0.00,40.00,8,4,14,0.00
2013-11-14,42,31,25,27,19,10,94,63,32,0.00,40.00,11,7,19,0.00
2013-11-15,37,28,23,24,16,9,94,61,40,0.00,40.00,18,10,37,0.00
2013-11-16,25,23,20,23,21,17,94,93,89,0.00,40.00,18,12,35,0.00
2013-11-17,30,25,20,21,18,16,88,76,59,0.00,40.00,16,9,33,0.01
2013-11-18,39,30,23,22,18,10,88,63,41,0.00,40.00,9,5,14,0.01
2013-11-19,34,30,28,28,21,12,97,70,50,0.00,40.00,11,8,18,0.00
2013-11-20,33,28,26,29,26,23,97,90,75,0.00,40.00,7,4,12,0.10
2013-11-21,31,25,16,29,23,13,96,92,84,0.00,40.00,15,7,24,0.07
2013-11-22,33,27,21,24,20,15,93,75,50,0.00,40.00,11,6,18,0.04
2013-11-23,36,30,24,28,25,22,94,82,63,0.00,40.00,8,5,11,0.23
2013-11-24,29,26,17,27,24,15,97,92,83,0.00,40.00,15,6,22,0.05
2013-11-25,33,23,16,19,13,10,89,66,48,0.00,40.00,13,7,18,0.02
2013-11-26,35,25,18,18,15,11,78,65,48,0.00,40.00,7,4,11,0.01
2013-11-27,40,29,21,17,14,6,77,55,35,0.00,40.00,6,3,9,0.00
2013-11-28,42,32,24,18,13,11,59,47,30,0.00,40.00,7,3,11,0.00
2013-11-29,36,28,24,20,18,15,78,64,47,0.00,40.00,10,6,16,0.00
2013-11-30,35,26,20,21,17,14,86,71,51,0.00,40.00,9,4,18,0.00
2013-12-1,27,22,19,21,18,16,93,87,75,0.00,40.00,6,4,12,0.01
2013-12-2,25,22,19,22,18,16,93,84,67,0.00,40.00,10,6,16,0.01
2013-12-3,28,22,12,21,17,9,93,80,69,0.00,40.00,14,9,32,0.00
2013-12-12,37,26,18,0,-3,-7,44,28,18,0.00,40.00,8,5,11,0.08
2013-12-13,31,21,14,12,4,-3,88,52,30,0.00,40.00,11,6,23,0.01
2013-12-14,24,16,10,16,11,6,88,81,66,0.00,40.00,9,5,18,0.00
2013-12-15,40,24,14,16,12,9,82,61,36,0.00,40.00,5,2,8,0.02
2013-12-16,42,29,22,18,13,9,59,51,37,0.00,40.00,6,3,10,0.02
2013-12-17,42,32,24,18,11,5,55,42,31,0.00,40.00,6,4,8,0.00
2013-12-18,39,33,29,11,7,3,44,34,27,0.00,40.00,10,6,21,0.00
2013-12-19,32,28,22,25,18,13,95,67,47,0.00,40.00,15,10,31,0.00
2013-12-20,25,19,12,21,16,9,93,87,80,0.00,40.00,9,6,17,0.00
2013-12-21,17,13,11,12,10,7,91,85,78,0.00,40.00,11,6,20,0.00
2013-12-22,17,13,9,12,9,5,88,85,82,0.00,40.00,8,5,18,0.00
2013-12-23,22,18,15,18,14,12,89,87,81,0.00,40.00,7,5,12,0.01
2013-12-24,23,17,8,20,14,3,92,87,81,0.00,40.00,12,6,28,0.01
2013-12-25,30,16,6,15,4,-3,82,62,43,0.00,40.00,6,3,11,0.19
2013-12-26,34,24,15,6,-1,-10,48,34,18,0.00,40.00,7,3,14,0.01
2013-12-28,36,27,17,16,12,9,88,55,39,0.00,40.00,15,6,28,0.01
2013-12-29,23,15,10,14,7,-2,89,70,36,0.00,40.00,12,5,22,0.00
2013-12-30,32,19,12,12,7,3,76,60,41,0.00,40.00,7,4,12,0.01
2013-12-31,27,22,17,18,14,9,90,72,59,0.00,40.00,7,4,13,0.02
2014-1-1,26,20,14,19,13,6,92,75,52,0.00,40.00,16,8,33,0.03
2014-1-2,33,23,15,9,3,-8,75,46,23,0.00,40.00,9,4,15,0.02